Time;durP1;ratioP1;P1;durP2;ratioP2;P2;SDS_P1;SDS_P2;PMS_P1;PMS_P2;Temp;Humidity;BMP_temperature;BMP_pressure;BME280_temperature;BME280_humidity;BME280_pressure;Samples;Min_cycle;Max_cycle;Signal;HPM_P1;HPM_P2
2021/03/08 00:01:03;;;;;;;18.38;2.92;;;;;;;-1.60;98.66;101195.38;5081834;28;20028;-84
2021/03/08 00:03:28;;;;;;;15.07;3.63;;;;;;;-1.56;98.21;101197.28;5079347;28;20468;-84
2021/03/08 00:05:54;;;;;;;19.92;3.13;;;;;;;-1.57;97.81;101200.59;5080022;28;20031;-83
2021/03/08 00:08:19;;;;;;;22.30;3.15;;;;;;;-1.52;97.74;101194.91;5081504;28;20036;-83
2021/03/08 00:10:45;;;;;;;19.35;3.42;;;;;;;-1.49;97.29;101201.78;5080761;28;20031;-83
2021/03/08 00:13:10;;;;;;;16.67;3.67;;;;;;;-1.53;96.98;101207.56;5101266;22;20045;-77
2021/03/08 00:15:35;;;;;;;19.38;3.10;;;;;;;-1.60;97.93;101203.91;5071645;28;20404;-77
2021/03/08 00:18:01;;;;;;;25.52;3.88;;;;;;;-1.69;98.46;101206.94;5088487;28;20082;-77
2021/03/08 00:20:27;;;;;;;20.42;3.38;;;;;;;-1.62;98.21;101208.06;5072836;28;20086;-77
2021/03/08 00:22:54;;;;;;;20.35;3.50;;;;;;;-1.77;98.10;101213.34;5071434;28;20071;-77
2021/03/08 00:25:27;;;;;;;19.80;3.55;;;;;;;-1.88;97.99;101210.38;5073345;28;20442;-79
2021/03/08 00:27:52;;;;;;;21.30;3.58;;;;;;;-1.83;98.23;101215.66;5075531;28;20020;-78
2021/03/08 00:30:19;;;;;;;20.65;3.17;;;;;;;-1.90;98.39;101222.16;5075349;28;20434;-77
2021/03/08 00:32:44;;;;;;;16.42;2.97;;;;;;;-1.97;98.69;101219.25;5076621;28;20021;-77
2021/03/08 00:35:11;;;;;;;16.92;3.47;;;;;;;-2.03;98.53;101214.81;5075461;28;20518;-77
2021/03/08 00:37:37;;;;;;;13.43;2.78;;;;;;;-2.09;99.05;101219.63;5076643;28;20473;-77
2021/03/08 00:40:05;;;;;;;21.77;3.00;;;;;;;-2.15;98.43;101225.31;5075358;28;20028;-77
2021/03/08 00:42:31;;;;;;;18.75;3.05;;;;;;;-2.15;98.58;101224.44;5075821;28;20114;-77
2021/03/08 00:44:57;;;;;;;18.30;3.55;;;;;;;-2.15;98.17;101224.44;5076361;28;20503;-77
2021/03/08 00:47:23;;;;;;;20.25;4.00;;;;;;;-2.25;97.76;101232.44;5076576;28;20158;-77
2021/03/08 00:49:49;;;;;;;16.83;2.92;;;;;;;-2.25;97.38;101233.28;5075056;28;20028;-77
2021/03/08 00:52:14;;;;;;;17.58;3.20;;;;;;;-2.24;97.69;101232.53;5075032;28;20362;-77
2021/03/08 00:54:40;;;;;;;14.85;2.72;;;;;;;-2.27;97.66;101229.84;5076470;28;20103;-77
2021/03/08 00:57:05;;;;;;;20.70;3.45;;;;;;;-2.34;97.19;101233.78;5074885;28;20028;-77
2021/03/08 00:59:31;;;;;;;14.77;2.42;;;;;;;-2.44;97.61;101225.66;5074972;28;20374;-79
2021/03/08 01:01:56;;;;;;;15.32;2.90;;;;;;;-2.42;98.17;101234.25;5076167;28;20073;-77
2021/03/08 01:04:21;;;;;;;16.67;2.85;;;;;;;-2.58;98.24;101227.59;5075904;28;20035;-77
2021/03/08 01:06:46;;;;;;;20.08;3.05;;;;;;;-2.45;98.86;101229.00;5076045;28;20028;-77
2021/03/08 01:09:12;;;;;;;15.13;3.00;;;;;;;-2.58;98.49;101228.47;5075756;28;20392;-77
2021/03/08 01:11:37;;;;;;;17.67;3.13;;;;;;;-2.66;98.02;101227.22;5080209;28;20020;-77
2021/03/08 01:14:03;;;;;;;13.93;2.70;;;;;;;-2.54;97.87;101229.47;5075265;28;20555;-77
2021/03/08 01:16:28;;;;;;;11.15;2.28;;;;;;;-2.51;97.73;101227.06;5075891;28;20032;-77
2021/03/08 01:18:53;;;;;;;11.52;2.85;;;;;;;-2.57;97.63;101225.09;5074552;28;20024;-77
2021/03/08 01:21:20;;;;;;;14.45;2.97;;;;;;;-2.62;97.88;101234.22;5075709;28;20021;-77
2021/03/08 01:23:45;;;;;;;14.32;2.67;;;;;;;-2.56;97.45;101221.75;5074356;28;20017;-77
2021/03/08 01:26:10;;;;;;;13.88;2.58;;;;;;;-2.59;97.75;101223.28;5075713;28;20098;-77
2021/03/08 01:28:36;;;;;;;15.15;2.55;;;;;;;-2.74;97.30;101222.59;5075980;28;20465;-77
2021/03/08 01:31:01;;;;;;;12.27;2.30;;;;;;;-2.67;96.89;101227.19;5074341;28;20098;-77
2021/03/08 01:33:26;;;;;;;17.15;3.28;;;;;;;-2.63;97.42;101216.34;5074395;28;20111;-77
2021/03/08 01:35:52;;;;;;;14.73;2.67;;;;;;;-2.68;97.31;101225.41;5075568;28;20020;-78
2021/03/08 01:38:17;;;;;;;13.38;2.40;;;;;;;-2.79;96.76;101225.81;5075334;28;20031;-77
2021/03/08 01:40:43;;;;;;;13.10;2.08;;;;;;;-2.87;97.51;101228.78;5075660;28;20480;-77
2021/03/08 01:43:10;;;;;;;13.15;2.40;;;;;;;-2.79;97.62;101227.47;5074100;28;20135;-77
2021/03/08 01:45:35;;;;;;;13.95;2.80;;;;;;;-2.85;97.60;101222.09;5074206;28;20055;-77
2021/03/08 01:48:01;;;;;;;12.70;2.17;;;;;;;-2.96;98.17;101215.66;5074142;28;20021;-77
2021/03/08 01:50:36;;;;;;;10.05;2.00;;;;;;;-3.07;96.75;101223.63;5075196;28;20032;-77
2021/03/08 01:53:04;;;;;;;11.15;2.15;;;;;;;-3.15;97.67;101221.53;5073939;28;20035;-77
2021/03/08 01:55:30;;;;;;;10.20;2.33;;;;;;;-3.14;98.80;101219.09;5073930;28;20028;-77
2021/03/08 01:57:55;;;;;;;12.00;2.22;;;;;;;-3.10;98.13;101220.97;5073912;28;20374;-77
2021/03/08 02:00:24;;;;;;;8.93;1.85;;;;;;;-2.97;97.07;101214.78;5075066;28;20099;-77
2021/03/08 02:02:50;;;;;;;8.15;2.15;;;;;;;-3.09;97.10;101222.69;5073512;28;20031;-77
2021/03/08 02:05:18;;;;;;;14.75;2.25;;;;;;;-3.13;97.50;101220.81;5073653;28;20024;-77
2021/03/08 02:07:43;;;;;;;9.60;2.35;;;;;;;-3.16;97.98;101220.66;5073767;28;20028;-77
2021/03/08 02:10:12;;;;;;;13.18;2.78;;;;;;;-3.11;97.00;101223.41;5073554;28;20120;-77
2021/03/08 02:12:51;;;;;;;14.68;3.67;;;;;;;-3.17;96.83;101213.88;5074145;28;20353;-77
2021/03/08 02:15:47;;;;;;;11.20;2.67;;;;;;;-3.21;96.92;101217.03;5073571;28;20494;-77
2021/03/08 02:18:40;;;;;;;15.23;2.88;;;;;;;-3.32;96.69;101219.06;5074980;28;20032;-77
2021/03/08 02:21:40;;;;;;;11.20;2.78;;;;;;;-3.43;97.06;101220.19;5073367;28;20546;-77
2021/03/08 02:24:43;;;;;;;10.00;2.75;;;;;;;-3.34;97.55;101220.66;5073240;28;20365;-77
2021/03/08 02:27:35;;;;;;;14.57;2.40;;;;;;;-3.33;97.09;101218.97;5073195;28;20021;-77
2021/03/08 02:30:18;;;;;;;11.95;2.30;;;;;;;-3.46;96.96;101222.59;5073158;28;20111;-77
2021/03/08 02:32:47;;;;;;;8.82;2.42;;;;;;;-3.40;97.49;101222.03;5074324;28;20107;-77
2021/03/08 02:35:17;;;;;;;11.48;2.53;;;;;;;-3.53;96.98;101223.94;5073186;28;20051;-77
2021/03/08 02:37:55;;;;;;;13.85;2.10;;;;;;;-3.53;97.22;101233.22;5073123;28;20034;-77
2021/03/08 02:40:26;;;;;;;9.73;2.92;;;;;;;-3.44;97.07;101236.22;5074189;28;20044;-77
2021/03/08 02:42:55;;;;;;;12.00;1.90;;;;;;;-3.50;95.92;101239.31;5074192;28;20060;-77
2021/03/08 02:45:24;;;;;;;9.50;2.42;;;;;;;-3.53;96.44;101238.31;5074145;28;20016;-77
2021/03/08 02:47:51;;;;;;;13.27;2.30;;;;;;;-3.59;96.32;101241.41;5074260;28;20056;-77
2021/03/08 02:50:19;;;;;;;11.45;3.00;;;;;;;-3.59;96.42;101240.53;5072279;28;20021;-77
2021/03/08 02:52:57;;;;;;;13.52;2.50;;;;;;;-3.56;96.13;101238.16;5072626;28;20046;-77
2021/03/08 02:55:35;;;;;;;13.27;3.63;;;;;;;-3.55;95.97;101235.66;5072670;28;20035;-77
2021/03/08 02:58:02;;;;;;;12.32;3.25;;;;;;;-3.58;96.15;101232.97;5073940;28;20077;-77
2021/03/08 03:00:30;;;;;;;15.40;2.60;;;;;;;-3.83;95.43;101241.03;5073801;28;20495;-77
2021/03/08 03:02:57;;;;;;;14.20;3.38;;;;;;;-3.86;97.13;101253.53;5073674;28;20031;-78
2021/03/08 03:05:25;;;;;;;11.52;2.15;;;;;;;-3.91;95.71;101249.03;5072531;28;20024;-77
2021/03/08 03:07:53;;;;;;;13.05;2.88;;;;;;;-3.85;96.71;101249.34;5072512;28;20077;-77
2021/03/08 03:10:24;;;;;;;11.73;2.40;;;;;;;-3.88;96.60;101251.72;5072453;28;20071;-77
2021/03/08 03:12:51;;;;;;;13.80;2.78;;;;;;;-3.94;97.67;101242.16;5072770;28;20032;-78
2021/03/08 03:15:17;;;;;;;12.27;2.92;;;;;;;-3.95;97.60;101245.47;5072371;28;20025;-78
2021/03/08 03:17:44;;;;;;;8.13;2.20;;;;;;;-3.84;97.23;101246.03;5072465;28;20028;-77
2021/03/08 03:20:13;;;;;;;8.43;2.28;;;;;;;-3.87;97.04;101253.47;5072340;28;20023;-77
2021/03/08 03:22:43;;;;;;;10.73;2.55;;;;;;;-3.88;96.05;101254.25;5073428;28;20032;-77
2021/03/08 03:25:10;;;;;;;11.60;2.33;;;;;;;-3.88;97.05;101257.66;5073715;28;20052;-78
2021/03/08 03:27:37;;;;;;;9.68;2.17;;;;;;;-3.96;96.00;101252.22;5073111;28;20028;-77
2021/03/08 03:30:05;;;;;;;9.25;1.63;;;;;;;-3.91;97.14;101259.16;5073418;28;20112;-77
2021/03/08 03:32:31;;;;;;;8.82;2.53;;;;;;;-3.91;96.08;101249.88;5072136;28;20028;-79
2021/03/08 03:34:58;;;;;;;7.38;1.73;;;;;;;-4.02;96.71;101256.09;5072179;28;20431;-77
2021/03/08 03:37:27;;;;;;;10.93;1.48;;;;;;;-3.97;95.93;101259.75;5073508;28;20021;-78
2021/03/08 03:39:52;;;;;;;9.65;1.77;;;;;;;-3.85;96.72;101256.94;5073569;28;20024;-78
2021/03/08 03:42:18;;;;;;;12.38;1.92;;;;;;;-4.07;96.11;101260.03;5079354;28;20047;-77
2021/03/08 03:44:43;;;;;;;12.38;2.15;;;;;;;-4.03;97.31;101261.97;5082884;28;20035;-78
2021/03/08 03:47:11;;;;;;;7.95;1.75;;;;;;;-4.04;96.92;101265.25;5073575;28;20134;-78
2021/03/08 03:49:36;;;;;;;10.45;1.90;;;;;;;-4.12;95.91;101269.06;5072151;28;20024;-78
2021/03/08 03:52:03;;;;;;;9.20;2.00;;;;;;;-4.05;96.47;101276.19;5072095;28;20115;-78
2021/03/08 03:54:29;;;;;;;7.13;1.88;;;;;;;-4.09;96.13;101277.69;5073056;28;20032;-78
2021/03/08 03:57:10;;;;;;;12.60;1.80;;;;;;;-4.14;96.98;101276.59;5072201;28;20021;-78
2021/03/08 03:59:35;;;;;;;6.10;1.73;;;;;;;-4.23;96.49;101274.44;5072482;28;20055;-78
2021/03/08 04:02:06;;;;;;;12.03;2.67;;;;;;;-4.20;97.73;101281.31;5074800;28;20020;-78
2021/03/08 04:04:52;;;;;;;8.82;1.30;;;;;;;-4.18;97.42;101279.75;5076273;28;20301;-78
2021/03/08 04:07:19;;;;;;;11.75;1.70;;;;;;;-4.18;97.22;101280.63;5076380;28;20032;-78
2021/03/08 04:09:49;;;;;;;10.30;1.58;;;;;;;-4.18;96.90;101280.63;5076124;28;20020;-78
2021/03/08 04:12:18;;;;;;;10.43;1.80;;;;;;;-4.26;96.42;101283.53;5076434;28;20055;-80
2021/03/08 04:14:46;;;;;;;8.55;1.98;;;;;;;-4.24;96.69;101289.56;5076282;28;20048;-79
2021/03/08 04:17:12;;;;;;;7.88;1.48;;;;;;;-4.27;95.38;101284.34;5077552;28;20024;-79
2021/03/08 04:19:40;;;;;;;8.00;1.70;;;;;;;-4.22;96.94;101286.31;5077535;28;20013;-79
2021/03/08 04:22:08;;;;;;;9.02;1.75;;;;;;;-4.25;96.09;101288.69;5076225;28;20020;-79
2021/03/08 04:24:36;;;;;;;12.45;1.83;;;;;;;-4.32;96.03;101289.13;5077041;28;20066;-79
2021/03/08 04:27:06;;;;;;;7.10;1.80;;;;;;;-4.43;96.10;101290.25;5076268;28;20554;-79
2021/03/08 04:29:39;;;;;;;10.65;1.73;;;;;;;-4.50;96.33;101290.69;5077213;28;20036;-78
2021/03/08 04:32:07;;;;;;;12.70;2.28;;;;;;;-4.47;96.45;101304.38;5077197;28;20199;-79
2021/03/08 04:34:33;;;;;;;8.38;1.80;;;;;;;-4.40;97.46;101301.41;5075801;28;20035;-79
2021/03/08 04:36:59;;;;;;;6.30;1.52;;;;;;;-4.43;96.27;101303.75;5075956;28;20056;-78
2021/03/08 04:39:27;;;;;;;8.73;2.58;;;;;;;-4.49;95.58;101308.50;5076146;28;20020;-79
2021/03/08 04:41:54;;;;;;;6.47;2.70;;;;;;;-4.46;96.51;101318.78;5075855;28;20020;-79
2021/03/08 04:44:20;;;;;;;15.32;5.28;;;;;;;-4.35;96.92;101319.34;5077361;28;20029;-79
2021/03/08 04:46:46;;;;;;;17.35;5.50;;;;;;;-4.32;95.79;101311.06;5075748;28;20074;-79
2021/03/08 04:49:12;;;;;;;12.10;4.50;;;;;;;-4.34;96.52;101315.16;5077057;28;20064;-79
2021/03/08 04:51:38;;;;;;;18.17;4.53;;;;;;;-4.29;96.31;101319.69;5075597;28;20119;-79
2021/03/08 04:54:04;;;;;;;11.05;3.17;;;;;;;-4.34;96.10;101312.63;5075190;28;20024;-79
2021/03/08 04:56:32;;;;;;;8.77;3.15;;;;;;;-4.28;96.79;101308.78;5076587;28;20507;-79
2021/03/08 04:58:58;;;;;;;12.05;2.97;;;;;;;-4.47;96.22;101319.56;5075491;28;20028;-79
2021/03/08 05:01:26;;;;;;;8.68;2.88;;;;;;;-4.38;96.82;101314.13;5075434;28;20044;-79
2021/03/08 05:03:53;;;;;;;12.25;3.15;;;;;;;-4.48;95.93;101320.34;5074956;28;20025;-79
2021/03/08 05:06:18;;;;;;;6.20;2.20;;;;;;;-4.47;96.69;101317.03;5075458;28;20028;-80
2021/03/08 05:08:46;;;;;;;8.30;2.42;;;;;;;-4.55;96.36;101325.88;5075731;28;20089;-80
2021/03/08 05:11:11;;;;;;;8.88;2.50;;;;;;;-4.48;96.36;101330.47;5075206;28;20115;-79
2021/03/08 05:13:38;;;;;;;11.77;2.40;;;;;;;-4.44;96.11;101336.56;5074971;28;20056;-79
2021/03/08 05:16:07;;;;;;;10.27;2.00;;;;;;;-4.39;96.26;101335.19;5075277;28;20025;-79
2021/03/08 05:18:33;;;;;;;11.38;1.88;;;;;;;-4.53;96.59;101336.94;5076563;28;20029;-79
2021/03/08 05:20:59;;;;;;;8.85;2.00;;;;;;;-4.53;96.19;101334.41;5075292;28;20017;-80
2021/03/08 05:23:25;;;;;;;12.98;2.08;;;;;;;-4.60;96.62;101339.06;5076371;28;20028;-80
2021/03/08 05:25:52;;;;;;;11.65;1.92;;;;;;;-4.60;96.44;101336.53;5076188;28;20047;-80
2021/03/08 05:28:19;;;;;;;9.50;1.98;;;;;;;-4.58;96.79;101337.50;5075189;28;20131;-79
2021/03/08 05:30:45;;;;;;;8.73;2.00;;;;;;;-4.60;97.29;101339.94;5074975;28;20507;-79
2021/03/08 05:33:24;;;;;;;6.78;1.63;;;;;;;-4.53;97.33;101336.94;5074861;28;20021;-80
2021/03/08 05:35:53;;;;;;;11.57;3.05;;;;;;;-4.55;97.31;101345.25;5076401;28;20035;-80
2021/03/08 05:38:23;;;;;;;7.78;1.70;;;;;;;-4.65;96.85;101348.91;5075093;28;20124;-80
2021/03/08 05:40:49;;;;;;;10.65;1.75;;;;;;;-4.80;95.39;101348.94;5075941;28;20016;-80
2021/03/08 05:43:17;;;;;;;6.53;1.90;;;;;;;-4.68;97.20;101356.34;5075832;28;20092;-80
2021/03/08 05:46:00;;;;;;;9.48;2.03;;;;;;;-4.69;96.42;101349.53;5074693;28;20324;-80
2021/03/08 05:48:44;;;;;;;10.77;1.77;;;;;;;-4.70;96.88;101352.88;5074626;28;20058;-79
2021/03/08 05:51:23;;;;;;;12.88;1.88;;;;;;;-4.69;96.63;101359.66;5074399;28;20024;-79
2021/03/08 05:54:01;;;;;;;6.55;1.52;;;;;;;-4.84;96.07;101359.66;5074335;28;20032;-79
2021/03/08 05:57:06;;;;;;;11.10;1.80;;;;;;;-4.92;96.99;101358.38;5074431;28;20028;-80
2021/03/08 05:59:48;;;;;;;7.75;1.77;;;;;;;-4.74;97.56;101361.06;5075524;28;20496;-80
2021/03/08 06:02:26;;;;;;;14.27;2.00;;;;;;;-4.64;97.21;101366.72;5074507;28;20039;-80
2021/03/08 06:05:21;;;;;;;8.10;2.15;;;;;;;-4.82;95.68;101365.69;5075794;28;20032;-80
2021/03/08 06:08:29;;;;;;;11.32;2.00;;;;;;;-4.97;96.21;101368.22;5074393;28;20392;-80
2021/03/08 06:11:08;;;;;;;11.10;2.30;;;;;;;-4.70;97.47;101373.97;5076993;28;20033;-80
2021/03/08 06:13:40;;;;;;;6.50;2.40;;;;;;;-4.61;96.92;101370.22;5089748;22;20041;-87
2021/03/08 06:16:09;;;;;;;12.73;2.88;;;;;;;-4.54;96.27;101380.75;5075630;28;20056;-87
2021/03/08 06:18:43;;;;;;;9.48;2.00;;;;;;;-4.63;95.87;101375.19;5074762;28;20028;-85
2021/03/08 06:21:09;;;;;;;8.77;2.28;;;;;;;-4.72;96.06;101379.72;5075187;28;20023;-85
2021/03/08 06:23:35;;;;;;;7.57;2.42;;;;;;;-4.75;96.29;101382.97;5088888;28;20112;-84
2021/03/08 06:26:03;;;;;;;9.88;2.63;;;;;;;-4.76;95.81;101390.47;5084108;28;20020;-85
2021/03/08 06:28:30;;;;;;;9.75;2.72;;;;;;;-4.72;95.83;101394.91;5075459;28;20084;-85
2021/03/08 06:30:55;;;;;;;10.90;2.40;;;;;;;-4.65;95.84;101397.00;5074534;28;20081;-86
2021/03/08 06:33:21;;;;;;;11.20;3.85;;;;;;;-4.22;96.33;101396.84;5075645;28;20025;-85
2021/03/08 06:35:46;;;;;;;10.88;2.72;;;;;;;-3.84;94.68;101398.09;5074060;28;20021;-86
2021/03/08 06:38:13;;;;;;;8.93;2.58;;;;;;;-3.44;92.77;101402.72;5074190;28;20396;-85
2021/03/08 06:40:38;;;;;;;10.27;2.30;;;;;;;-3.01;90.80;101418.47;5075563;28;20043;-85
2021/03/08 06:43:03;;;;;;;13.02;2.63;;;;;;;-2.84;88.49;101407.47;5081820;28;20032;-85
2021/03/08 06:45:29;;;;;;;11.07;3.08;;;;;;;-2.74;89.00;101413.00;5074196;28;20107;-86
2021/03/08 06:47:55;;;;;;;7.47;2.55;;;;;;;-2.43;87.98;101420.44;5074845;28;20055;-83
2021/03/08 06:50:20;;;;;;;10.32;2.67;;;;;;;-2.38;86.46;101416.44;5076072;28;20028;-84
2021/03/08 06:52:46;;;;;;;8.40;2.15;;;;;;;-2.06;86.59;101415.44;5074358;28;20097;-85
2021/03/08 06:55:12;;;;;;;8.23;1.80;;;;;;;-1.91;85.65;101412.72;5074802;28;20509;-85
2021/03/08 06:57:42;;;;;;;7.85;1.90;;;;;;;-1.92;84.72;101421.16;5075102;28;20146;-85
2021/03/08 07:00:09;;;;;;;10.45;2.10;;;;;;;-1.65;84.71;101409.69;5074064;28;20020;-85
2021/03/08 07:02:43;;;;;;;8.05;2.00;;;;;;;-1.56;83.64;101418.56;5074731;28;20097;-85
2021/03/08 07:05:11;;;;;;;9.65;2.17;;;;;;;-1.02;82.77;101426.84;5073509;28;20021;-85
2021/03/08 07:07:49;;;;;;;7.30;1.67;;;;;;;-0.90;82.30;101424.81;5073394;28;20025;-85
2021/03/08 07:10:16;;;;;;;6.47;1.88;;;;;;;-0.82;81.91;101420.91;5073286;28;20031;-86
2021/03/08 07:12:49;;;;;;;6.90;1.80;;;;;;;-0.34;80.65;101423.75;5074685;28;20052;-86
2021/03/08 07:15:15;;;;;;;6.00;1.88;;;;;;;-0.42;79.65;101435.28;5074418;28;20119;-86
2021/03/08 07:17:41;;;;;;;9.48;2.33;;;;;;;-0.25;80.20;101436.84;5073482;28;20120;-86
2021/03/08 07:20:12;;;;;;;12.48;2.33;;;;;;;-0.19;78.59;101448.09;5075654;28;20473;-85
2021/03/08 07:22:41;;;;;;;8.43;2.25;;;;;;;-0.02;78.68;101447.06;5072985;28;20029;-85
2021/03/08 07:25:16;;;;;;;7.75;2.17;;;;;;;0.28;79.09;101446.50;5073021;28;20024;-85
2021/03/08 07:27:47;;;;;;;12.25;2.08;;;;;;;0.61;78.26;101450.31;5072811;28;20032;-85
2021/03/08 07:30:13;;;;;;;8.95;2.40;;;;;;;0.90;75.27;101443.72;5072838;28;20040;-85
2021/03/08 07:32:49;;;;;;;7.75;2.38;;;;;;;1.38;73.44;101453.00;5075515;28;20028;-83
2021/03/08 07:35:15;;;;;;;8.63;1.95;;;;;;;1.63;71.75;101457.22;5080957;28;20020;-84
2021/03/08 07:37:46;;;;;;;7.55;1.90;;;;;;;1.55;74.64;101456.13;5075331;28;20039;-84
2021/03/08 07:40:23;;;;;;;8.90;2.08;;;;;;;2.36;71.16;101448.41;5074643;28;20021;-84
2021/03/08 07:42:48;;;;;;;7.63;1.85;;;;;;;2.41;69.20;101446.00;5073405;28;20025;-84
2021/03/08 07:45:14;;;;;;;7.05;1.73;;;;;;;2.51;68.93;101453.97;5075112;28;20020;-84
2021/03/08 07:47:40;;;;;;;9.85;1.70;;;;;;;1.99;70.66;101449.84;5077801;28;20017;-83
2021/03/08 07:50:26;;;;;;;6.50;2.05;;;;;;;1.97;71.15;101446.41;5074987;28;20029;-84
2021/03/08 07:52:53;;;;;;;11.55;2.08;;;;;;;2.14;71.43;101454.59;5075110;28;20033;-85
2021/03/08 07:55:19;;;;;;;10.63;2.17;;;;;;;2.25;73.02;101454.91;5075779;28;20032;-84
2021/03/08 07:57:45;;;;;;;8.50;2.13;;;;;;;2.43;72.04;101449.47;5074834;28;20024;-84
2021/03/08 08:00:11;;;;;;;12.15;2.40;;;;;;;2.53;69.47;101442.09;5073137;28;20020;-84
2021/03/08 08:02:36;;;;;;;11.30;2.17;;;;;;;2.67;66.01;101442.47;5073027;28;20116;-84
2021/03/08 08:05:03;;;;;;;10.30;1.80;;;;;;;2.48;65.84;101438.53;5074173;28;20033;-84
2021/03/08 08:07:31;;;;;;;8.02;1.70;;;;;;;2.25;69.78;101448.09;5072894;28;20499;-84
2021/03/08 08:10:02;;;;;;;7.88;2.00;;;;;;;2.59;66.07;101448.22;5073318;28;20131;-84
2021/03/08 08:12:32;;;;;;;8.23;1.45;;;;;;;2.77;64.26;101448.72;5075016;28;20473;-84
2021/03/08 08:15:00;;;;;;;13.98;1.80;;;;;;;2.53;65.46;101454.03;5074428;28;20399;-84
2021/03/08 08:17:25;;;;;;;7.72;2.00;;;;;;;2.30;65.95;101435.44;5073233;28;20392;-84
2021/03/08 08:19:53;;;;;;;13.10;2.00;;;;;;;2.94;67.24;101442.38;5074255;28;20016;-84
2021/03/08 08:22:23;;;;;;;8.32;1.73;;;;;;;2.66;66.89;101439.88;5075766;28;20540;-83
2021/03/08 08:24:53;;;;;;;13.27;1.90;;;;;;;3.45;62.41;101441.16;5074208;28;20067;-84
2021/03/08 08:27:20;;;;;;;9.00;1.77;;;;;;;3.51;62.72;101438.75;5075153;28;20047;-84
2021/03/08 08:29:48;;;;;;;8.32;1.73;;;;;;;3.25;62.35;101447.47;5074542;28;20032;-84
2021/03/08 08:32:13;;;;;;;9.98;1.58;;;;;;;2.62;63.76;101440.63;5075688;28;20504;-84
2021/03/08 08:34:47;;;;;;;8.07;2.08;;;;;;;3.12;61.57;101446.28;5074386;28;20071;-84
2021/03/08 08:37:20;;;;;;;11.50;2.10;;;;;;;2.98;62.46;101444.19;5077932;28;20544;-83
2021/03/08 08:39:52;;;;;;;8.60;1.70;;;;;;;3.54;62.54;101455.88;5074773;28;20071;-84
2021/03/08 08:42:21;;;;;;;8.73;2.08;;;;;;;3.57;62.12;101448.25;5077758;28;20054;-83
2021/03/08 08:44:48;;;;;;;18.73;2.95;;;;;;;3.78;60.05;101451.34;5075982;28;20028;-84
2021/03/08 08:47:31;;;;;;;10.90;1.60;;;;;;;4.12;58.15;101452.13;5076164;28;20057;-84
2021/03/08 08:50:04;;;;;;;7.43;1.70;;;;;;;3.58;59.23;101448.31;5079331;28;20052;-84
2021/03/08 08:52:53;;;;;;;8.43;1.60;;;;;;;3.80;60.95;101452.25;5082865;28;20499;-84
2021/03/08 08:55:42;;;;;;;6.65;1.33;;;;;;;3.66;59.68;101446.81;5082000;28;20028;-84
2021/03/08 08:58:29;;;;;;;15.07;1.80;;;;;;;3.92;56.90;101444.84;5082518;28;20088;-84
2021/03/08 09:01:14;;;;;;;8.52;1.73;;;;;;;4.23;58.61;101440.41;5081318;28;20025;-84
2021/03/08 09:03:57;;;;;;;6.55;1.33;;;;;;;4.57;56.56;101453.97;5079636;28;20044;-84
2021/03/08 09:06:53;;;;;;;8.10;1.77;;;;;;;4.79;57.44;101452.69;5081410;28;20038;-84
2021/03/08 09:09:23;;;;;;;6.72;1.73;;;;;;;4.91;56.25;101454.63;5076266;28;20044;-85
2021/03/08 09:11:57;;;;;;;11.48;2.38;;;;;;;4.61;54.77;101456.59;5078136;28;20562;-85
2021/03/08 09:14:36;;;;;;;5.63;1.40;;;;;;;5.05;54.46;101455.78;5077362;28;20029;-84
2021/03/08 09:17:10;;;;;;;7.63;1.60;;;;;;;5.11;52.84;101461.03;5080640;28;20396;-84
2021/03/08 09:19:36;;;;;;;12.15;1.80;;;;;;;5.22;52.81;101463.78;5079205;28;20099;-84
2021/03/08 09:22:20;;;;;;;6.97;1.90;;;;;;;4.83;54.99;101464.75;5080313;28;20098;-84
2021/03/08 09:24:46;;;;;;;10.45;2.10;;;;;;;5.07;55.27;101465.22;5078554;28;20030;-83
2021/03/08 09:27:22;;;;;;;6.35;1.45;;;;;;;5.13;54.73;101463.63;5075719;28;20484;-84
2021/03/08 09:29:48;;;;;;;6.72;1.48;;;;;;;5.34;53.40;101468.28;5075385;28;20024;-85
2021/03/08 09:32:14;;;;;;;7.72;1.23;;;;;;;4.55;52.59;101465.91;5075172;28;20488;-85
2021/03/08 09:34:40;;;;;;;10.15;1.75;;;;;;;5.15;52.78;101467.09;5076710;28;20021;-84
2021/03/08 09:37:06;;;;;;;4.88;1.30;;;;;;;4.80;53.17;101464.69;5075914;28;20035;-85
2021/03/08 09:39:31;;;;;;;7.28;1.33;;;;;;;5.06;53.01;101470.34;5076321;28;20048;-85
2021/03/08 09:41:56;;;;;;;21.73;8.85;;;;;;;5.20;54.33;101473.16;5076002;28;20067;-85
2021/03/08 09:44:21;;;;;;;9.25;2.97;;;;;;;5.55;54.49;101468.66;5074537;28;20056;-85
2021/03/08 09:46:54;;;;;;;5.32;1.15;;;;;;;4.90;52.04;101471.78;5076340;28;20024;-85
2021/03/08 09:49:19;;;;;;;7.38;1.45;;;;;;;5.77;48.46;101465.59;5075793;28;20439;-85
2021/03/08 09:51:44;;;;;;;5.30;1.30;;;;;;;5.42;49.56;101472.75;5075965;28;20028;-86
2021/03/08 09:54:10;;;;;;;4.25;1.05;;;;;;;4.45;51.86;101466.56;5076220;28;20391;-85
2021/03/08 09:56:39;;;;;;;6.13;1.13;;;;;;;5.48;50.17;101479.66;5074222;28;20021;-86
2021/03/08 09:59:09;;;;;;;7.18;1.30;;;;;;;6.19;48.24;101476.56;5072866;28;20606;-85
2021/03/08 10:01:35;;;;;;;6.88;1.60;;;;;;;5.36;50.82;101474.31;5073898;28;20028;-85
2021/03/08 10:04:01;;;;;;;5.88;1.20;;;;;;;5.60;51.49;101479.03;5075090;28;20120;-85
2021/03/08 10:06:32;;;;;;;7.28;1.30;;;;;;;5.52;50.50;101482.34;5073743;28;20107;-85
2021/03/08 10:08:58;;;;;;;11.07;1.20;;;;;;;5.71;47.65;101469.78;5074278;28;20031;-85
2021/03/08 10:11:26;;;;;;;5.35;0.95;;;;;;;6.49;47.22;101473.53;5074281;28;20404;-85
2021/03/08 10:13:55;;;;;;;7.20;1.30;;;;;;;6.63;48.94;101468.56;5073973;28;20039;-85
2021/03/08 10:16:27;;;;;;;10.70;1.63;;;;;;;7.11;48.10;101467.41;5074044;28;20055;-85
2021/03/08 10:18:53;;;;;;;6.25;1.10;;;;;;;6.19;46.14;101461.97;5075511;28;20396;-85
2021/03/08 10:21:22;;;;;;;6.80;1.20;;;;;;;5.40;48.52;101469.25;5075212;28;20024;-86
2021/03/08 10:23:48;;;;;;;6.63;1.20;;;;;;;6.48;44.13;101463.22;5073658;28;20170;-86
2021/03/08 10:26:18;;;;;;;3.85;0.98;;;;;;;5.94;46.26;101465.03;5073677;28;20018;-86
2021/03/08 10:28:50;;;;;;;6.05;1.40;;;;;;;5.97;47.33;101467.63;5073364;28;20392;-86
2021/03/08 10:31:20;;;;;;;4.63;1.00;;;;;;;6.92;43.67;101463.75;5073397;28;20020;-86
2021/03/08 10:33:50;;;;;;;9.20;1.50;;;;;;;6.90;44.52;101465.47;5073260;28;20017;-86
2021/03/08 10:36:22;;;;;;;7.30;1.58;;;;;;;7.57;45.82;101475.59;5074539;28;20042;-86
2021/03/08 10:38:59;;;;;;;5.85;1.13;;;;;;;6.75;43.46;101475.59;5073058;28;20078;-86
2021/03/08 10:41:29;;;;;;;7.00;1.20;;;;;;;7.45;43.05;101470.31;5073152;28;20012;-86
2021/03/08 10:43:55;;;;;;;5.38;1.23;;;;;;;7.38;41.73;101466.81;5073267;28;20020;-86
2021/03/08 10:46:27;;;;;;;6.00;1.00;;;;;;;7.26;40.80;101464.97;5073041;28;20116;-85
2021/03/08 10:49:01;;;;;;;4.65;1.10;;;;;;;8.17;39.22;101463.13;5073013;28;20025;-86
2021/03/08 10:51:27;;;;;;;4.95;1.00;;;;;;;8.26;39.98;101460.63;5073052;28;20507;-86
2021/03/08 10:54:20;;;;;;;5.32;0.85;;;;;;;7.69;38.14;101469.66;5074173;28;20040;-86
2021/03/08 10:56:45;;;;;;;8.40;0.90;;;;;;;7.11;40.32;101470.88;5070328;28;20456;-88
2021/03/08 10:59:26;;;;;;;6.68;0.80;;;;;;;7.03;33.98;101472.50;5073398;28;20052;-88
2021/03/08 11:02:03;;;;;;;1.92;0.55;;;;;;;6.42;31.69;101470.00;5073291;28;20020;-88
2021/03/08 11:04:29;;;;;;;4.78;0.65;;;;;;;7.78;30.57;101464.56;5074391;28;20107;-88
2021/03/08 11:06:55;;;;;;;3.05;0.63;;;;;;;7.94;33.94;101475.88;5073125;28;20452;-88
2021/03/08 11:09:31;;;;;;;3.38;0.82;;;;;;;7.11;33.70;101467.41;5073652;28;20052;-88
2021/03/08 11:11:59;;;;;;;3.35;0.80;;;;;;;7.40;32.95;101466.84;5073158;28;20020;-88
2021/03/08 11:14:24;;;;;;;2.70;0.60;;;;;;;7.64;30.99;101455.88;5072767;28;20028;-88
2021/03/08 11:16:52;;;;;;;6.13;0.70;;;;;;;6.57;30.42;101463.34;5074111;28;20031;-89
2021/03/08 11:19:25;;;;;;;3.63;1.10;;;;;;;6.63;30.79;101459.13;5073047;28;20025;-89
2021/03/08 11:22:13;;;;;;;3.05;0.60;;;;;;;6.61;31.33;101452.22;5073028;28;20032;-89
2021/03/08 11:24:47;;;;;;;3.88;0.82;;;;;;;7.52;32.21;101459.22;5072889;28;20020;-89
2021/03/08 11:27:27;;;;;;;4.27;0.80;;;;;;;7.69;32.68;101454.19;5074199;28;20028;-89
2021/03/08 11:30:10;;;;;;;3.42;0.52;;;;;;;6.91;33.50;101455.16;5073283;28;20480;-89
2021/03/08 11:32:38;;;;;;;3.97;0.98;;;;;;;6.70;33.34;101454.91;5072818;28;20032;-89
2021/03/08 11:35:05;;;;;;;5.22;1.00;;;;;;;6.61;32.85;101452.22;5072812;28;20028;-89
2021/03/08 11:37:30;;;;;;;5.95;0.90;;;;;;;7.98;31.93;101441.50;5073429;28;20117;-89